Time;durP1;ratioP1;P1;durP2;ratioP2;P2;SDS_P1;SDS_P2;PMS_P1;PMS_P2;Temp;Humidity;BMP_temperature;BMP_pressure;BME280_temperature;BME280_humidity;BME280_pressure;Samples;Min_cycle;Max_cycle;Signal;HPM_P1;HPM_P2
2023/12/05 00:00:54;;;;;;;4.97;1.15;;;;;;;37.33;nan;98475.72;7396976;19;20023;-52
2023/12/05 00:03:20;;;;;;;0.40;0.40;;;;;;;37.05;nan;98481.75;7392407;19;20413;-51
2023/12/05 00:05:46;;;;;;;1.55;0.40;;;;;;;36.99;nan;98476.53;7393299;19;20018;-51
2023/12/05 00:08:13;;;;;;;1.65;1.55;;;;;;;36.99;nan;98476.53;7393033;19;20010;-51
2023/12/05 00:10:40;;;;;;;0.30;0.30;;;;;;;37.08;nan;98481.06;7389635;19;20007;-51
2023/12/05 00:13:07;;;;;;;0.45;0.45;;;;;;;36.96;nan;98486.66;7396940;19;20018;-51
2023/12/05 00:15:33;;;;;;;0.65;0.65;;;;;;;36.81;nan;98487.75;7392454;19;20017;-51
2023/12/05 00:17:59;;;;;;;1.55;0.85;;;;;;;36.87;nan;98484.97;7391847;19;20015;-51
2023/12/05 00:20:25;;;;;;;0.75;0.75;;;;;;;36.75;nan;98490.53;7392026;19;20007;-51
2023/12/05 00:22:51;;;;;;;0.30;0.20;;;;;;;36.80;nan;98491.34;7399693;19;20492;-51
2023/12/05 00:25:18;;;;;;;1.65;0.43;;;;;;;36.73;nan;98487.59;7402081;19;20017;-51
2023/12/05 00:27:44;;;;;;;0.10;0.10;;;;;;;36.65;nan;98495.38;7400671;19;20006;-51
2023/12/05 00:30:11;;;;;;;0.40;0.40;;;;;;;36.59;nan;98495.97;7403003;19;20007;-52
2023/12/05 00:32:37;;;;;;;0.70;0.35;;;;;;;36.52;nan;98497.28;7398718;19;20022;-51
2023/12/05 00:35:03;;;;;;;1.20;0.52;;;;;;;36.51;nan;98507.41;7399406;19;20011;-51
2023/12/05 00:37:30;;;;;;;7.80;1.10;;;;;;;36.50;nan;98497.22;7403997;19;20014;-52
2023/12/05 00:39:56;;;;;;;0.28;0.28;;;;;;;36.53;nan;98510.38;7400007;19;20408;-52
2023/12/05 00:42:22;;;;;;;0.28;0.28;;;;;;;36.32;nan;98505.50;7399074;19;20014;-51
2023/12/05 00:44:48;;;;;;;5.10;0.70;;;;;;;36.34;nan;98505.56;7399464;19;20030;-51
2023/12/05 00:47:14;;;;;;;1.52;0.57;;;;;;;36.41;nan;98504.25;7402450;19;20349;-51
2023/12/05 00:49:40;;;;;;;0.30;0.30;;;;;;;36.37;nan;98509.94;7398938;19;20373;-51
2023/12/05 00:52:06;;;;;;;0.20;0.20;;;;;;;36.34;nan;98514.97;7399515;19;20062;-52
2023/12/05 00:54:32;;;;;;;0.95;0.95;;;;;;;36.32;nan;98520.00;7402788;19;20011;-51
2023/12/05 00:56:58;;;;;;;2.50;0.65;;;;;;;36.29;nan;98512.69;7398650;19;20015;-52
2023/12/05 00:59:25;;;;;;;0.13;0.13;;;;;;;36.29;nan;98521.38;7404326;19;20019;-51
2023/12/05 01:01:51;;;;;;;0.30;0.30;;;;;;;36.32;nan;98528.72;7399873;19;20014;-51
2023/12/05 01:04:17;;;;;;;0.30;0.20;;;;;;;36.36;nan;98529.50;7399664;19;20079;-52
2023/12/05 01:06:43;;;;;;;0.10;0.10;;;;;;;36.36;nan;98528.78;7398191;19;20043;-51
2023/12/05 01:09:10;;;;;;;0.65;0.55;;;;;;;36.83;nan;98525.53;7402050;19;20006;-51
2023/12/05 01:11:36;;;;;;;0.90;0.82;;;;;;;36.82;nan;98529.13;7402613;19;20022;-51
2023/12/05 01:14:03;;;;;;;2.63;0.28;;;;;;;37.11;nan;98537.03;7398517;19;20018;-51
2023/12/05 01:16:29;;;;;;;0.38;0.35;;;;;;;37.03;nan;98539.78;7397935;19;20521;-52
2023/12/05 01:18:55;;;;;;;0.20;0.20;;;;;;;37.06;nan;98544.91;7399153;19;20018;-51
2023/12/05 01:21:21;;;;;;;0.20;0.20;;;;;;;37.10;nan;98542.09;7398134;19;20014;-51
2023/12/05 01:23:47;;;;;;;1.60;0.38;;;;;;;36.96;nan;98538.16;7401184;19;20459;-47
2023/12/05 01:26:14;;;;;;;1.45;0.38;;;;;;;37.00;nan;98550.59;7401330;19;20011;-47
2023/12/05 01:28:40;;;;;;;0.28;0.28;;;;;;;37.08;nan;98550.75;7399370;19;20568;-47
2023/12/05 01:31:06;;;;;;;0.45;0.45;;;;;;;37.06;nan;98547.81;7393938;19;20080;-47
2023/12/05 01:33:32;;;;;;;1.08;0.40;;;;;;;36.99;nan;98552.00;7396153;19;20038;-47
2023/12/05 01:35:58;;;;;;;1.20;0.57;;;;;;;37.04;nan;98555.75;7401321;19;20003;-47
2023/12/05 01:38:24;;;;;;;2.17;0.57;;;;;;;37.08;nan;98550.75;7394864;19;20019;-47
2023/12/05 01:40:51;;;;;;;0.10;0.10;;;;;;;37.02;nan;98562.25;7396476;19;20011;-48
2023/12/05 01:43:17;;;;;;;0.52;0.47;;;;;;;37.06;nan;98565.25;7395031;19;20014;-47
2023/12/05 01:45:43;;;;;;;0.75;0.75;;;;;;;36.97;nan;98560.69;7395710;19;20019;-47
2023/12/05 01:48:09;;;;;;;0.40;0.40;;;;;;;36.96;nan;98565.03;7397082;19;20015;-48
2023/12/05 01:50:36;;;;;;;0.17;0.17;;;;;;;36.96;nan;98573.75;7395280;19;20102;-47
2023/12/05 01:53:04;;;;;;;0.28;0.28;;;;;;;36.84;nan;98566.91;7397097;19;20421;-47
2023/12/05 01:55:31;;;;;;;0.10;0.10;;;;;;;36.88;nan;98573.53;7396931;19;20078;-47
2023/12/05 01:57:58;;;;;;;0.68;0.68;;;;;;;36.80;nan;98576.25;7400254;19;20010;-47
2023/12/05 02:00:25;;;;;;;0.10;0.00;;;;;;;36.77;nan;98574.00;7396245;19;20458;-47
2023/12/05 02:02:52;;;;;;;0.20;0.20;;;;;;;36.52;nan;98581.41;7397492;19;20082;-47
2023/12/05 02:05:18;;;;;;;0.10;0.10;;;;;;;36.51;nan;98577.03;7394506;19;20014;-47
2023/12/05 02:07:44;;;;;;;0.75;0.75;;;;;;;36.54;nan;98572.75;7401363;19;20014;-47
2023/12/05 02:10:10;;;;;;;1.30;0.30;;;;;;;36.84;nan;98579.22;7396266;19;20018;-47
2023/12/05 02:12:40;;;;;;;0.55;0.47;;;;;;;36.98;nan;98588.31;7394815;19;20029;-47
2023/12/05 02:15:07;;;;;;;0.17;0.17;;;;;;;36.87;nan;98588.72;7396088;19;20033;-47
2023/12/05 02:17:58;;;;;;;0.20;0.20;;;;;;;36.85;nan;98595.25;7399132;19;20015;-47
2023/12/05 02:20:48;;;;;;;0.30;0.30;;;;;;;36.66;nan;98595.50;7400661;19;20006;-47
2023/12/05 02:26:57;;;;;;;0.25;0.25;;;;;;;36.37;nan;98608.56;7394613;19;20354;-52
2023/12/05 02:29:24;;;;;;;0.20;0.20;;;;;;;36.55;nan;98617.00;7400284;19;20473;-52
2023/12/05 02:31:50;;;;;;;0.30;0.30;;;;;;;36.35;nan;98620.13;7392985;19;20010;-47
2023/12/05 02:34:16;;;;;;;0.30;0.30;;;;;;;36.29;nan;98628.69;7394457;19;20352;-51
2023/12/05 02:37:24;;;;;;;0.10;0.10;;;;;;;36.26;nan;98622.09;7395513;19;20039;-52
2023/12/05 02:40:16;;;;;;;5.05;0.95;;;;;;;36.36;nan;98633.94;7393380;19;20356;-47
2023/12/05 03:07:11;;;;;;;0.20;0.20;;;;;;;36.17;nan;98661.00;7394100;19;20029;-51
2023/12/05 03:09:46;;;;;;;0.10;0.10;;;;;;;36.16;nan;98659.53;7396867;19;20019;-51
2023/12/05 03:12:15;;;;;;;0.30;0.30;;;;;;;36.14;nan;98667.44;7397445;19;20039;-51
2023/12/05 03:14:47;;;;;;;0.50;0.35;;;;;;;36.16;nan;98664.59;7396373;19;20010;-51
2023/12/05 03:17:18;;;;;;;0.20;0.20;;;;;;;36.17;nan;98672.59;7396066;19;20010;-51
2023/12/05 03:19:49;;;;;;;0.45;0.45;;;;;;;36.16;nan;98673.28;7391813;19;20023;-51
2023/12/05 03:22:18;;;;;;;0.25;0.25;;;;;;;36.33;nan;98673.03;7392996;19;20010;-51
2023/12/05 03:24:47;;;;;;;0.10;0.10;;;;;;;36.40;nan;98671.00;7395569;19;20017;-51
2023/12/05 03:27:18;;;;;;;0.30;0.30;;;;;;;36.36;nan;98679.63;7397229;19;20014;-51
2023/12/05 03:29:48;;;;;;;0.40;0.30;;;;;;;36.40;nan;98682.63;7392143;19;20021;-51
2023/12/05 03:32:18;;;;;;;0.20;0.20;;;;;;;36.40;nan;98682.63;7393846;19;20010;-52
2023/12/05 03:34:50;;;;;;;0.98;0.98;;;;;;;36.41;nan;98681.91;7392831;19;20007;-52
2023/12/05 03:37:23;;;;;;;0.10;0.10;;;;;;;36.44;nan;98685.66;7393847;19;20038;-52
2023/12/05 03:39:53;;;;;;;0.50;0.50;;;;;;;36.48;nan;98694.44;7391681;19;20108;-51
2023/12/05 03:42:23;;;;;;;2.83;0.77;;;;;;;36.55;nan;98695.34;7392497;19;20030;-51
2023/12/05 03:44:55;;;;;;;0.38;0.30;;;;;;;36.55;nan;98701.88;7392708;19;20042;-51
2023/12/05 03:47:27;;;;;;;3.00;0.75;;;;;;;36.61;nan;98698.38;7394091;19;20010;-51
2023/12/05 03:49:59;;;;;;;0.20;0.20;;;;;;;36.41;nan;98695.69;7391920;19;20011;-51
2023/12/05 03:52:30;;;;;;;0.35;0.35;;;;;;;36.26;nan;98703.28;7394682;19;20011;-51
2023/12/05 03:55:05;;;;;;;0.35;0.35;;;;;;;36.08;nan;98710.75;7395617;19;20010;-52
2023/12/05 03:57:35;;;;;;;0.35;0.35;;;;;;;36.04;nan;98716.47;7408741;19;20458;-51
2023/12/05 04:00:04;;;;;;;1.05;0.98;;;;;;;35.97;nan;98718.44;7406343;19;20018;-52
2023/12/05 04:02:51;;;;;;;1.08;0.75;;;;;;;35.84;nan;98721.66;7407529;19;20014;-52
2023/12/05 04:05:23;;;;;;;0.20;0.20;;;;;;;35.86;nan;98718.81;7403892;19;20017;-51
2023/12/05 04:07:53;;;;;;;0.15;0.15;;;;;;;35.92;nan;98730.56;7406383;19;20066;-51
2023/12/05 04:10:21;;;;;;;0.40;0.40;;;;;;;35.90;nan;98734.16;7408070;19;20018;-51
2023/12/05 04:12:54;;;;;;;1.48;1.05;;;;;;;36.11;nan;98729.69;7408140;19;20007;-52
2023/12/05 04:15:24;;;;;;;0.30;0.30;;;;;;;36.32;nan;98740.41;7410028;19;20092;-52
2023/12/05 04:17:55;;;;;;;0.40;0.40;;;;;;;36.32;nan;98746.22;7409147;19;20010;-51
2023/12/05 04:20:25;;;;;;;0.10;0.10;;;;;;;36.33;nan;98748.44;7408390;19;20569;-51
2023/12/05 04:22:54;;;;;;;1.98;0.73;;;;;;;36.31;nan;98741.84;7406287;19;20127;-52
2023/12/05 04:25:24;;;;;;;0.17;0.17;;;;;;;36.25;nan;98756.19;7402951;19;20033;-52
2023/12/05 04:27:58;;;;;;;0.10;0.10;;;;;;;36.14;nan;98760.22;7407858;19;20132;-52
2023/12/05 04:30:30;;;;;;;0.30;0.30;;;;;;;36.11;nan;98759.41;7404535;19;20009;-51
2023/12/05 04:33:01;;;;;;;1.33;0.50;;;;;;;36.18;nan;98760.31;7405029;19;20017;-52
2023/12/05 04:35:35;;;;;;;0.65;0.65;;;;;;;36.16;nan;98769.72;7406019;19;20070;-52
2023/12/05 04:38:04;;;;;;;0.10;0.10;;;;;;;36.23;nan;98759.03;7405498;19;20042;-52
2023/12/05 04:40:35;;;;;;;1.65;0.55;;;;;;;36.11;nan;98768.13;7404529;19;20479;-52
2023/12/05 04:43:11;;;;;;;0.20;0.20;;;;;;;36.12;nan;98786.25;7404798;19;20010;-52
2023/12/05 04:45:41;;;;;;;0.45;0.30;;;;;;;36.13;nan;98776.88;7403699;19;20014;-51
2023/12/05 04:48:12;;;;;;;0.10;0.10;;;;;;;36.17;nan;98782.78;7404376;19;20018;-51
2023/12/05 04:50:41;;;;;;;0.55;0.45;;;;;;;36.25;nan;98790.97;7405814;19;20006;-52
2023/12/05 04:53:12;;;;;;;0.10;0.10;;;;;;;36.24;nan;98792.38;7409399;19;20007;-52
2023/12/05 04:55:49;;;;;;;0.20;0.20;;;;;;;35.93;nan;98804.50;7409343;19;20011;-51
2023/12/05 04:58:25;;;;;;;0.45;0.40;;;;;;;35.83;nan;98802.03;7408813;19;20066;-51
2023/12/05 05:01:09;;;;;;;0.20;0.20;;;;;;;35.75;nan;98802.56;7409424;19;20022;-51
2023/12/05 05:03:47;;;;;;;0.40;0.40;;;;;;;35.70;nan;98812.53;7406894;19;20136;-52
2023/12/05 05:06:21;;;;;;;0.52;0.40;;;;;;;35.64;nan;98815.25;7405835;19;20014;-51
2023/12/05 05:08:57;;;;;;;0.28;0.20;;;;;;;35.71;nan;98819.81;7399273;19;20011;-51
2023/12/05 05:11:36;;;;;;;3.35;0.68;;;;;;;35.66;nan;98824.00;7397620;19;20015;-51
2023/12/05 05:14:11;;;;;;;0.10;0.10;;;;;;;35.63;nan;98824.59;7398469;19;20039;-51
2023/12/05 05:17:01;;;;;;;0.17;0.17;;;;;;;35.68;nan;98826.97;7401163;19;20014;-51
2023/12/05 05:19:56;;;;;;;0.22;0.22;;;;;;;35.74;nan;98830.03;7396729;19;20034;-51
2023/12/05 05:22:28;;;;;;;0.10;0.10;;;;;;;35.84;nan;98828.88;7398579;19;20031;-51
2023/12/05 05:25:08;;;;;;;0.20;0.20;;;;;;;35.92;nan;98834.91;7397232;19;20014;-51
2023/12/05 05:27:41;;;;;;;0.80;0.43;;;;;;;35.90;nan;98843.53;7398874;19;20014;-51
2023/12/05 05:30:17;;;;;;;0.13;0.13;;;;;;;35.86;nan;98840.53;7396282;19;20018;-51
2023/12/05 05:32:49;;;;;;;0.43;0.43;;;;;;;35.87;nan;98847.78;7397751;19;20015;-51
2023/12/05 05:35:21;;;;;;;0.10;0.10;;;;;;;35.94;nan;98852.34;7397130;19;20003;-52
2023/12/05 05:37:54;;;;;;;0.15;0.15;;;;;;;36.05;nan;98857.06;7398002;19;20352;-51
2023/12/05 05:40:37;;;;;;;0.32;0.32;;;;;;;35.95;nan;98865.44;7398940;19;20014;-51
2023/12/05 05:43:32;;;;;;;0.30;0.30;;;;;;;35.91;nan;98862.44;7396188;19;20070;-55
2023/12/05 05:46:27;;;;;;;0.30;0.30;;;;;;;36.17;nan;98863.97;7396392;19;20028;-51
2023/12/05 05:49:22;;;;;;;0.20;0.20;;;;;;;36.21;nan;98869.16;7394101;19;20007;-51
2023/12/05 05:52:00;;;;;;;1.55;0.50;;;;;;;36.13;nan;98874.69;7397031;19;20015;-51
2023/12/05 05:54:40;;;;;;;0.10;0.10;;;;;;;36.15;nan;98872.59;7396549;19;20034;-51
2023/12/05 05:57:15;;;;;;;0.90;0.43;;;;;;;36.23;nan;98877.91;7396955;19;20006;-51
2023/12/05 05:59:44;;;;;;;0.10;0.10;;;;;;;36.12;nan;98881.94;7396149;19;20050;-51
2023/12/05 06:02:22;;;;;;;0.20;0.20;;;;;;;36.09;nan;98886.19;7395394;19;20010;-51
2023/12/05 06:04:51;;;;;;;0.80;0.52;;;;;;;36.01;nan;98891.75;7400523;19;20074;-51
2023/12/05 06:07:25;;;;;;;2.03;0.88;;;;;;;35.97;nan;98903.22;7396807;19;20010;-51
2023/12/05 06:10:03;;;;;;;0.30;0.30;;;;;;;35.85;nan;98899.91;7400512;19;20066;-51
2023/12/05 06:12:46;;;;;;;0.30;0.30;;;;;;;35.93;nan;98905.97;7395287;19;20066;-51
2023/12/05 06:15:26;;;;;;;0.30;0.30;;;;;;;35.76;nan;98911.25;7397731;19;20367;-51
2023/12/05 06:18:04;;;;;;;1.05;0.40;;;;;;;35.88;nan;98915.94;7399932;19;20348;-51
2023/12/05 06:20:36;;;;;;;0.10;0.10;;;;;;;35.78;nan;98916.34;7395162;19;20022;-51
2023/12/05 06:23:06;;;;;;;0.30;0.30;;;;;;;35.85;nan;98931.78;7395214;19;20031;-51
2023/12/05 06:25:39;;;;;;;0.10;0.10;;;;;;;35.99;nan;98924.31;7394343;19;20347;-51
2023/12/05 06:28:15;;;;;;;0.15;0.15;;;;;;;36.10;nan;98934.06;7398822;19;20501;-51
2023/12/05 06:30:52;;;;;;;0.15;0.15;;;;;;;35.84;nan;98941.91;7397551;19;20013;-51
2023/12/05 06:33:25;;;;;;;0.40;0.20;;;;;;;35.83;nan;98946.22;7397024;19;20007;-51
2023/12/05 06:35:57;;;;;;;0.20;0.20;;;;;;;35.94;nan;98954.56;7396292;19;20010;-51
2023/12/05 06:38:26;;;;;;;0.32;0.32;;;;;;;35.86;nan;98947.78;7394830;19;20371;-51
2023/12/05 06:40:57;;;;;;;0.10;0.10;;;;;;;35.80;nan;98951.94;7399795;19;20032;-52
2023/12/05 06:43:27;;;;;;;0.40;0.40;;;;;;;35.97;nan;98967.00;7395908;19;20477;-51
2023/12/05 06:46:00;;;;;;;0.55;0.55;;;;;;;35.96;nan;98969.16;7394400;19;20006;-51
2023/12/05 06:48:30;;;;;;;0.30;0.30;;;;;;;35.97;nan;98975.69;7398404;19;20358;-52
2023/12/05 06:50:59;;;;;;;0.45;0.45;;;;;;;35.93;nan;98973.34;7399280;19;20023;-52
2023/12/05 06:53:31;;;;;;;0.20;0.20;;;;;;;35.73;nan;98985.06;7396207;19;20355;-52
2023/12/05 06:56:00;;;;;;;0.20;0.20;;;;;;;35.80;nan;98983.09;7395280;19;20445;-51
2023/12/05 06:58:33;;;;;;;0.40;0.40;;;;;;;35.74;nan;98991.56;7396700;19;20023;-51
2023/12/05 07:01:02;;;;;;;0.30;0.30;;;;;;;35.71;nan;98987.88;7400347;19;20074;-51
2023/12/05 07:03:34;;;;;;;0.40;0.40;;;;;;;35.52;nan;98994.47;7399648;19;20469;-51
2023/12/05 07:06:05;;;;;;;0.20;0.20;;;;;;;35.51;nan;99001.69;7396206;19;20083;-51
2023/12/05 07:08:36;;;;;;;0.90;0.75;;;;;;;35.60;nan;99006.34;7397625;19;20002;-51
2023/12/05 07:11:06;;;;;;;0.10;0.10;;;;;;;35.73;nan;99011.13;7393459;19;20030;-51
2023/12/05 07:13:36;;;;;;;0.10;0.10;;;;;;;35.71;nan;99019.03;7398344;19;20463;-51
2023/12/05 07:16:06;;;;;;;0.10;0.10;;;;;;;35.75;nan;99019.91;7397317;19;20010;-51
2023/12/05 07:18:37;;;;;;;1.17;0.40;;;;;;;35.72;nan;99027.03;7396990;19;20282;-52
2023/12/05 07:21:13;;;;;;;0.70;0.55;;;;;;;35.69;nan;99031.25;7399148;19;20486;-52
2023/12/05 07:23:44;;;;;;;5.60;0.63;;;;;;;35.72;nan;99029.94;7395842;19;20018;-51
2023/12/05 07:26:17;;;;;;;0.10;0.10;;;;;;;35.67;nan;99037.00;7395127;19;20011;-52
2023/12/05 07:28:47;;;;;;;0.45;0.45;;;;;;;35.70;nan;99043.59;7395263;19;20011;-51
2023/12/05 07:31:13;;;;;;;0.10;0.10;;;;;;;35.67;nan;99063.06;7392336;19;20015;-51
2023/12/05 07:33:39;;;;;;;0.10;0.10;;;;;;;35.72;nan;99056.00;7396704;19;20017;-51
2023/12/05 07:36:06;;;;;;;0.17;0.17;;;;;;;35.69;nan;99060.25;7392596;19;20409;-51
2023/12/05 07:38:32;;;;;;;0.10;0.10;;;;;;;35.64;nan;99070.22;7393548;19;20062;-51
2023/12/05 07:40:58;;;;;;;0.22;0.22;;;;;;;35.53;nan;99064.75;7394254;19;20022;-51
2023/12/05 07:43:29;;;;;;;0.10;0.10;;;;;;;35.51;nan;99068.31;7396943;19;20014;-52
2023/12/05 07:45:58;;;;;;;0.20;0.20;;;;;;;35.58;nan;99083.75;7394922;19;20028;-51
2023/12/05 07:48:25;;;;;;;0.20;0.20;;;;;;;35.50;nan;99090.00;7394511;19;20010;-51
2023/12/05 07:50:52;;;;;;;0.25;0.25;;;;;;;35.49;nan;99088.53;7394546;19;20042;-52
2023/12/05 07:53:20;;;;;;;0.10;0.10;;;;;;;35.60;nan;99096.16;7396611;19;20015;-51
2023/12/05 07:55:50;;;;;;;0.10;0.10;;;;;;;35.62;nan;99102.03;7391824;19;20033;-51
2023/12/05 07:58:18;;;;;;;0.17;0.17;;;;;;;35.61;nan;99094.72;7396255;19;20034;-51
2023/12/05 08:00:46;;;;;;;0.30;0.30;;;;;;;35.59;nan;99109.16;7393995;19;20029;-51
2023/12/05 08:03:14;;;;;;;0.10;0.10;;;;;;;35.48;nan;99113.09;7393206;19;20045;-51
2023/12/05 08:05:43;;;;;;;0.10;0.10;;;;;;;35.45;nan;99111.53;7395882;19;20019;-51
2023/12/05 08:08:14;;;;;;;0.30;0.30;;;;;;;35.51;nan;99120.47;7394035;19;20022;-51
2023/12/05 08:10:42;;;;;;;0.20;0.20;;;;;;;35.55;nan;99119.84;7392721;19;20045;-51
2023/12/05 08:13:10;;;;;;;0.10;0.10;;;;;;;35.47;nan;99122.44;7392920;19;20018;-52
2023/12/05 08:15:37;;;;;;;0.20;0.20;;;;;;;35.41;nan;99122.22;7392032;19;20346;-51
2023/12/05 08:18:05;;;;;;;0.40;0.40;;;;;;;35.42;nan;99124.44;7396500;19;20027;-51
2023/12/05 08:20:32;;;;;;;0.10;0.10;;;;;;;35.54;nan;99135.75;7391472;19;20011;-51
2023/12/05 08:22:59;;;;;;;0.55;0.38;;;;;;;35.55;nan;99126.41;7393057;19;20007;-52
2023/12/05 08:25:27;;;;;;;11.07;0.65;;;;;;;35.60;nan;99139.63;7391401;19;20007;-51
2023/12/05 08:27:56;;;;;;;0.20;0.20;;;;;;;35.59;nan;99138.13;7393619;19;20010;-52
2023/12/05 08:30:24;;;;;;;0.10;0.10;;;;;;;35.67;nan;99138.41;7396478;19;20042;-51
2023/12/05 08:32:52;;;;;;;0.10;0.10;;;;;;;35.65;nan;99155.72;7391673;19;20031;-51
2023/12/05 08:35:20;;;;;;;1.77;0.85;;;;;;;35.60;nan;99157.00;7391976;19;20046;-51
2023/12/05 08:37:51;;;;;;;0.10;0.10;;;;;;;35.57;nan;99158.34;7392132;19;20035;-51
2023/12/05 08:40:20;;;;;;;0.40;0.40;;;;;;;35.67;nan;99161.59;7394150;19;20355;-51
2023/12/05 08:42:50;;;;;;;0.10;0.00;;;;;;;35.76;nan;99163.38;7394164;19;20809;-52
2023/12/05 08:45:19;;;;;;;0.40;0.40;;;;;;;35.83;nan;99175.16;7396056;19;20007;-51
2023/12/05 08:47:53;;;;;;;0.10;0.10;;;;;;;35.82;nan;99183.16;7397738;19;20011;-51
2023/12/05 08:50:35;;;;;;;0.90;0.90;;;;;;;35.94;nan;99174.13;7400085;19;20086;-48
2023/12/05 08:53:06;;;;;;;0.20;0.20;;;;;;;35.90;nan;99176.88;7398925;19;20018;-47
2023/12/05 08:55:41;;;;;;;1.10;0.85;;;;;;;35.73;nan;99182.13;7398440;19;20034;-47
2023/12/05 08:58:09;;;;;;;0.10;0.10;;;;;;;35.63;nan;99181.72;7400809;19;20017;-47
2023/12/05 09:00:38;;;;;;;0.57;0.57;;;;;;;36.00;nan;99197.53;7397369;19;20016;-47
2023/12/05 09:03:06;;;;;;;0.85;0.77;;;;;;;36.05;nan;99193.38;7398613;19;20010;-47
2023/12/05 09:05:36;;;;;;;0.38;0.38;;;;;;;36.08;nan;99189.16;7395345;19;20007;-47
2023/12/05 09:08:04;;;;;;;0.20;0.20;;;;;;;36.18;nan;99192.41;7401430;19;20014;-47
2023/12/05 09:10:32;;;;;;;0.30;0.30;;;;;;;36.24;nan;99201.28;7397862;19;20010;-47
2023/12/05 09:13:00;;;;;;;0.10;0.10;;;;;;;36.23;nan;99199.84;7400384;19;20006;-47
2023/12/05 09:15:27;;;;;;;0.30;0.20;;;;;;;36.26;nan;99204.25;7403320;19;20011;-47
2023/12/05 09:17:55;;;;;;;0.13;0.13;;;;;;;36.50;nan;99199.31;7398141;19;20015;-47
2023/12/05 09:20:24;;;;;;;3.10;0.90;;;;;;;36.40;nan;99201.88;7398140;19;20131;-47
2023/12/05 09:22:52;;;;;;;0.10;0.10;;;;;;;36.45;nan;99212.22;7400091;19;20022;-47
2023/12/05 09:25:19;;;;;;;0.90;0.90;;;;;;;36.54;nan;99213.97;7396187;19;20011;-47
2023/12/05 09:27:47;;;;;;;1.40;0.73;;;;;;;36.61;nan;99217.81;7397355;19;20032;-47
2023/12/05 09:30:14;;;;;;;0.90;0.60;;;;;;;36.83;nan;99225.09;7403300;19;20014;-47
2023/12/05 09:32:41;;;;;;;1.23;0.30;;;;;;;36.69;nan;99229.69;7398814;19;20058;-47
2023/12/05 09:35:10;;;;;;;3.10;0.77;;;;;;;36.98;nan;99232.84;7398320;19;20011;-47
2023/12/05 09:37:39;;;;;;;0.20;0.15;;;;;;;37.35;nan;99231.09;7398416;19;20363;-47
2023/12/05 09:40:07;;;;;;;1.23;0.90;;;;;;;37.44;nan;99229.94;7394802;19;20011;-47
2023/12/05 09:42:38;;;;;;;0.98;0.73;;;;;;;37.50;nan;99230.09;7396880;19;20089;-47
2023/12/05 09:45:15;;;;;;;1.40;0.50;;;;;;;37.59;nan;99246.38;7395381;19;20015;-47
2023/12/05 09:47:48;;;;;;;6.05;1.55;;;;;;;37.61;nan;99243.53;7400993;19;20014;-47
2023/12/05 09:50:17;;;;;;;0.25;0.25;;;;;;;37.56;nan;99247.72;7397873;19;20074;-47
2023/12/05 09:52:44;;;;;;;0.10;0.10;;;;;;;37.70;nan;99253.97;7400128;19;20074;-47
2023/12/05 09:55:12;;;;;;;1.23;0.68;;;;;;;37.80;nan;99254.28;7400245;19;20031;-47
2023/12/05 09:57:41;;;;;;;0.45;0.45;;;;;;;37.65;nan;99249.44;7396297;19;20015;-47
2023/12/05 10:00:08;;;;;;;0.30;0.30;;;;;;;37.60;nan;99259.50;7397372;19;20014;-47
2023/12/05 10:02:38;;;;;;;0.40;0.40;;;;;;;37.52;nan;99265.03;7396529;19;20007;-46
2023/12/05 10:05:11;;;;;;;1.05;0.40;;;;;;;37.89;nan;99261.81;7398829;19;20015;-47
2023/12/05 10:07:38;;;;;;;0.17;0.17;;;;;;;37.98;nan;99269.34;7396527;19;20654;-51
2023/12/05 10:10:05;;;;;;;0.30;0.28;;;;;;;38.09;nan;99279.84;7400012;19;20462;-51
2023/12/05 10:12:32;;;;;;;0.20;0.20;;;;;;;38.02;nan;99286.91;7396671;19;20519;-51
2023/12/05 10:14:58;;;;;;;0.10;0.00;;;;;;;37.97;nan;99285.31;7398149;19;20037;-51
2023/12/05 10:17:26;;;;;;;0.25;0.25;;;;;;;37.86;nan;99286.44;7399903;19;20031;-51
2023/12/05 10:19:52;;;;;;;1.17;0.55;;;;;;;37.88;nan;99292.34;7396508;19;20446;-51
2023/12/05 10:22:19;;;;;;;0.20;0.20;;;;;;;37.83;nan;99293.63;7399890;19;20021;-51
2023/12/05 10:24:45;;;;;;;0.10;0.10;;;;;;;37.72;nan;99303.44;7394285;19;20454;-52
2023/12/05 10:27:12;;;;;;;0.95;0.50;;;;;;;37.89;nan;99297.44;7395633;19;20339;-51
2023/12/05 10:29:41;;;;;;;0.68;0.52;;;;;;;37.97;nan;99307.84;7399346;19;20018;-51
2023/12/05 10:32:13;;;;;;;0.10;0.10;;;;;;;37.72;nan;99300.53;7393820;19;20006;-52
2023/12/05 10:34:48;;;;;;;1.38;0.98;;;;;;;28.54;nan;99317.22;7391331;19;20010;-84
2023/12/05 10:37:25;;;;;;;5.68;0.85;;;;;;;23.65;nan;99336.19;7391023;19;20014;-84
2023/12/05 10:39:53;;;;;;;0.43;0.43;;;;;;;22.53;nan;99335.34;7393374;19;20015;-85
2023/12/05 10:42:20;;;;;;;0.85;0.85;;;;;;;22.17;nan;99329.91;7390289;19;20017;-84
2023/12/05 10:44:47;;;;;;;0.75;0.55;;;;;;;21.91;nan;99335.22;7390172;19;20007;-84
2023/12/05 10:47:14;;;;;;;0.10;0.10;;;;;;;21.98;nan;99334.47;7389344;19;20672;-84
2023/12/05 10:49:43;;;;;;;0.47;0.47;;;;;;;21.69;nan;99342.34;7390231;19;20011;-84
2023/12/05 10:52:12;;;;;;;2.13;0.90;;;;;;;20.60;nan;99343.06;7392939;19;20010;-84
2023/12/05 10:54:39;;;;;;;0.70;0.70;;;;;;;19.76;nan;99345.78;7390678;19;20452;-84
2023/12/05 10:57:11;;;;;;;0.40;0.40;;;;;;;19.60;nan;99351.31;7393511;19;20010;-84
2023/12/05 10:59:39;;;;;;;0.63;0.22;;;;;;;19.50;nan;99353.09;7389331;19;20051;-88
2023/12/05 11:02:14;;;;;;;2.72;0.93;;;;;;;19.31;nan;99366.59;7392227;19;20326;-85
2023/12/05 11:04:41;;;;;;;0.57;0.57;;;;;;;19.38;nan;99368.03;7388488;19;20010;-86
2023/12/05 11:07:08;;;;;;;0.20;0.20;;;;;;;19.48;nan;99366.25;7387208;19;20021;-88
2023/12/05 11:09:35;;;;;;;0.22;0.15;;;;;;;19.33;nan;99366.81;7392269;19;20006;-86
2023/12/05 11:12:08;;;;;;;0.17;0.17;;;;;;;19.27;nan;99362.59;7388272;19;20023;-86
2023/12/05 11:14:45;;;;;;;0.55;0.55;;;;;;;19.27;nan;99362.59;7390297;19;20424;-86
2023/12/05 11:17:23;;;;;;;0.45;0.45;;;;;;;19.33;nan;99355.53;7392613;19;20018;-86
2023/12/05 11:20:11;;;;;;;0.10;0.10;;;;;;;19.42;nan;99360.75;7390665;19;20010;-86
2023/12/05 11:23:12;;;;;;;0.45;0.45;;;;;;;19.45;nan;99368.09;7390477;19;20493;-86
2023/12/05 11:25:45;;;;;;;;;;;;;;;19.68;nan;99363.44;7391008;19;20071;-86
2023/12/05 11:28:11;;;;;;;0.30;0.30;;;;;;;19.74;nan;99366.13;7392475;19;19918;-87
2023/12/05 11:30:56;;;;;;;7.75;1.05;;;;;;;19.58;nan;99376.53;7390401;19;20545;-84
2023/12/05 11:34:06;;;;;;;0.20;0.20;;;;;;;19.71;nan;99378.53;7389495;19;20046;-86
2023/12/05 11:37:00;;;;;;;0.13;0.13;;;;;;;19.79;nan;99384.25;7392522;19;20082;-86
2023/12/05 11:39:26;;;;;;;0.45;0.45;;;;;;;19.75;nan;99384.59;7387123;19;20456;-86
2023/12/05 11:42:09;;;;;;;0.90;0.50;;;;;;;19.86;nan;99389.25;7390093;19;20015;-86
2023/12/05 11:44:39;;;;;;;0.65;0.25;;;;;;;21.60;nan;99379.72;7387892;19;20006;-86
2023/12/05 11:47:16;;;;;;;0.10;0.10;;;;;;;21.91;nan;99387.00;7390499;19;20019;-86
2023/12/05 11:49:45;;;;;;;6.70;0.98;;;;;;;21.95;nan;99387.38;7390718;19;20006;-86
2023/12/05 11:52:12;;;;;;;0.77;0.40;;;;;;;22.05;nan;99382.66;7391534;19;20082;-86
2023/12/05 11:54:44;;;;;;;1.13;0.57;;;;;;;22.41;nan;99388.91;7387986;19;20507;-86
2023/12/05 11:57:21;;;;;;;0.65;0.65;;;;;;;22.26;nan;99388.88;7390983;19;20380;-86
2023/12/05 11:59:51;;;;;;;0.40;0.20;;;;;;;22.10;nan;99392.31;7388189;19;20006;-86
2023/12/05 12:02:23;;;;;;;0.35;0.35;;;;;;;22.14;nan;99398.34;7389293;19;20326;-85
2023/12/05 12:05:03;;;;;;;0.40;0.32;;;;;;;21.98;nan;99402.53;7386970;19;20011;-91
2023/12/05 12:07:29;;;;;;;0.20;0.20;;;;;;;21.97;nan;99407.44;7390995;19;20027;-84
2023/12/05 12:09:55;;;;;;;0.90;0.90;;;;;;;21.93;nan;99418.38;7388020;19;20011;-84
2023/12/05 12:12:24;;;;;;;0.93;0.60;;;;;;;21.96;nan;99411.56;7389583;19;20114;-86
2023/12/05 12:14:50;;;;;;;0.13;0.13;;;;;;;22.14;nan;99418.22;7386007;19;20011;-84
2023/12/05 12:17:16;;;;;;;0.40;0.35;;;;;;;21.96;nan;99425.00;7390389;19;20019;-84
2023/12/05 12:19:43;;;;;;;0.32;0.32;;;;;;;21.95;nan;99421.41;7393822;19;20006;-83
2023/12/05 12:22:13;;;;;;;0.25;0.25;;;;;;;21.88;nan;99422.91;7395318;19;20017;-84
2023/12/05 12:24:40;;;;;;;0.10;0.10;;;;;;;21.77;nan;99431.75;7393910;19;20476;-83
2023/12/05 12:27:07;;;;;;;0.20;0.20;;;;;;;21.66;nan;99428.50;7398159;19;20011;-83
2023/12/05 12:29:35;;;;;;;0.20;0.10;;;;;;;21.55;nan;99429.59;7396276;19;20025;-83
2023/12/05 12:32:10;;;;;;;0.60;0.50;;;;;;;21.85;nan;99423.28;7395366;19;20334;-83
2023/12/05 12:34:38;;;;;;;0.10;0.10;;;;;;;21.62;nan;99428.88;7392507;19;19999;-83
2023/12/05 12:37:05;;;;;;;0.20;0.20;;;;;;;21.61;nan;99426.59;7394275;19;20460;-83